Nearby METAR Reports

 

ENCN - Kristiansand/Kje, Norway
Distance from station: Pn 17km
Aktualizacja: 28/07/2021 01:50
Fog, Pochmurno
Fog, Pochmurno
 Wiatr z PnWs
Wiatr: PnWs 9 km/h
Temperatura: 16°C
Punkt Rosy: 16°C
Wilgotność: 100%
Ciśnienie: 1006 hPa
Podsumowanie: Fog
Clouds: Pochmurno
Visibility: 0 km
Cloud details: Pochmurno 0 m
2021/07/27 23:50 ENCN 272350Z AUTO 04005KT 0200 R03/1200U R21/0800N FG VV000 16/16 Q1006
EKSN - Sindal Airport, Denmark
Distance from station: WsPdWs 145km
Aktualizacja: 27/07/2021 14:50
NOT Current
Przeważnie pochmurno
Przeważnie pochmurno
 Wiatr z PdPdWs
Wiatr: PdPdWs 15 km/h
Temperatura: 25°C
Punkt Rosy: 17°C
Wilgotność: 61%
Ciśnienie: 1008 hPa
Clouds: Przeważnie pochmurno
Visibility: 10 km
Cloud details: Few Clouds 945 m
Few Clouds 1737 m
Przeważnie pochmurno 6096 m
2021/07/27 12:50 EKSN 271250Z 16008KT 9999 FEW031 FEW057TCU BKN200 25/17 Q1008
 
EKYT - Alborg, Denmark
Distance from station: PdWs 153km
Aktualizacja: 28/07/2021 01:53
Few Clouds
Few Clouds
 Wiatr z PdPdZd
Wiatr: PdPdZd 9 km/h
Temperatura: 17°C
Punkt Rosy: 17°C
Wilgotność: 100%
Ciśnienie: 1007 hPa
Clouds: Few Clouds
Visibility: 8 km
Cloud details: Few Clouds 396 m
2021/07/27 23:53 EKYT 272353Z 21005KT 8000 FEW013 17/17 Q1007
ENSN - Skien/Geiterygge, Norway
Distance from station: PnWs 153km
Aktualizacja: 09/11/2015 09:50
NOT Current
Bezchmurnie
Bezchmurnie
 Wiatr z PdPdZd
Wiatr: PdPdZd 19 km/h, Poryw: 41 km/h
Temperatura: 7°C
Wind Chill: 4°C
Punkt Rosy: 3°C
Wilgotność: 76%
Ciśnienie: 1000 hPa
Podsumowanie: Bezchmurnie
Visibility: greater than 10 km
2015/11/09 08:50 ENSN 090850Z 20010G22KT 150V240 CAVOK 07/03 Q1000
 
ENZV - Stavanger/Sola(A, Norway
Distance from station: PnZd 166km
Aktualizacja: 28/07/2021 01:50
Lekki deszcz, Przeważnie pochmurno
Lekki deszcz, Przeważnie pochmurno
 Wiatr z varies
Wiatr: varies 2 km/h
Temperatura: 17°C
Punkt Rosy: 16°C
Wilgotność: 94%
Ciśnienie: 1006 hPa
Podsumowanie: Lekki deszcz
Clouds: Przeważnie pochmurno
Visibility: 10 km
Cloud details: Few Clouds 122 m
Częściowe zachmurzenie 244 m
Przeważnie pochmurno 1219 m
2021/07/27 23:50 ENZV 272350Z VRB01KT 9999 -RA FEW004CB SCT008 BKN040 17/16 Q1006
ENNO - Notodden, Norway
Distance from station: PnPnZd 182km
Aktualizacja: 27/07/2021 14:50
NOT Current
Lekki deszcz, Przeważnie pochmurno
Lekki deszcz, Przeważnie pochmurno
 Wiatr z PnZd
Wiatr: PnZd 6 km/h
Temperatura: 18°C
Punkt Rosy: 17°C
Wilgotność: 94%
Ciśnienie: 1010 hPa
Podsumowanie: Lekki deszcz
Clouds: Przeważnie pochmurno
Visibility: 9 km
Cloud details: Few Clouds 122 m
Częściowe zachmurzenie 335 m
Przeważnie pochmurno 610 m
2021/07/27 12:50 ENNO 271250Z 32003KT 9000 -RA FEW004 SCT011 BKN020 18/17 Q1010
 
ENTO - Torp (civ/Nor-Af, Norway
Distance from station: PnWs 183km
Aktualizacja: 28/07/2021 01:50
Przeważnie pochmurno
Przeważnie pochmurno
 Wiatr z PnPnZd
Wiatr: PnPnZd 4 km/h
Temperatura: 17°C
Punkt Rosy: 17°C
Wilgotność: 100%
Ciśnienie: 1007 hPa
Clouds: Przeważnie pochmurno
Visibility: 0 km
Cloud details: Częściowe zachmurzenie 91 m
Przeważnie pochmurno 152 m
2021/07/27 23:50 ENTO 272350Z AUTO 34002KT 0300 R18/0900N R36/P2000N SCT003/// BKN005/// 17/17 Q1007
EKKA - Karup (dan-Afb), Denmark
Distance from station: PdPdWs 209km
Aktualizacja: 28/07/2021 01:51
Mist, Bezchmurnie
Mist, Bezchmurnie
 Wiatr z Pd
Wiatr: Pd 7 km/h
Temperatura: 15°C
Punkt Rosy: 14°C
Wilgotność: 94%
Ciśnienie: 1008 hPa
Podsumowanie: Mist
Clouds: Bezchmurnie
Visibility: 5 km
2021/07/27 23:51 EKKA 272351Z AUTO 18004KT 4900 BR NCD 15/14 Q1008
 
ENHD - Haugesund/Karmoy, Norway
Distance from station: PnZd 216km
Aktualizacja: 28/07/2021 01:50
Lekki deszcz, Bezchmurnie
Lekki deszcz, Bezchmurnie
 Wiatr z WsPdWs
Wiatr: WsPdWs 11 km/h
Temperatura: 17°C
Punkt Rosy: 16°C
Wilgotność: 94%
Ciśnienie: 1005 hPa
Podsumowanie: Lekki deszcz
Clouds: Bezchmurnie
Visibility: 10 km
2021/07/27 23:50 ENHD 272350Z AUTO 12006KT 9999 -RA NCD 17/16 Q1005
ENRY - Rygge (nor-Afb), Norway
Distance from station: PnWs 216km
Aktualizacja: 28/07/2021 01:50
Pochmurno
Pochmurno
 Wiatr z Ws
Wiatr: Ws 11 km/h
Temperatura: 18°C
Punkt Rosy: 17°C
Wilgotność: 94%
Ciśnienie: 1007 hPa
Clouds: Pochmurno
Visibility: 10 km
Cloud details: Pochmurno 335 m
2021/07/27 23:50 ENRY 272350Z AUTO 10006KT 9999NDV OVC011/// 18/17 Q1007
 
ESGP - Goteborg/Save (a, Sweden
Distance from station: Ws 230km
Aktualizacja: 02/01/2017 11:20
NOT Current
Bezchmurnie
Bezchmurnie
 Wiatr z calm
Wiatr: Cisza
Temperatura: -2°C
Punkt Rosy: -4°C
Wilgotność: 86%
Ciśnienie: 1012 hPa
Clouds: Bezchmurnie
Visibility: 10 km
2017/01/02 10:20 ESGP 021020Z AUTO 00000KT 9999 NCD M02/M04 Q1012
EKVJ - Stauning Airport, Denmark
Distance from station: Pd 233km
Aktualizacja: 27/07/2021 16:20
NOT Current
Lekki deszcz, Showers, Częściowe zachmurzenie
Lekki deszcz, Showers, Częściowe zachmurzenie
 Wiatr z ZdPdZa
Wiatr: ZdPdZa 22 km/h
Temperatura: 20°C
Punkt Rosy: 19°C
Wilgotność: 94%
Ciśnienie: 1008 hPa
Podsumowanie: Lekki deszcz, Showers
Clouds: Częściowe zachmurzenie
Visibility: 10 km
Cloud details: Częściowe zachmurzenie 762 m
2021/07/27 14:20 EKVJ 271420Z 24012KT 9999 -SHRA SCT025CB 20/19 Q1008
 
ENSO - Stord/Soerstokke, Norway
Distance from station: PnZd 246km
Aktualizacja: 27/07/2021 19:20
NOT Current
Częściowe zachmurzenie
Częściowe zachmurzenie
 Wiatr z PnPnZd
Wiatr: PnPnZd 9 km/h
Temperatura: 18°C
Punkt Rosy: 17°C
Wilgotność: 94%
Ciśnienie: 1007 hPa
Clouds: Częściowe zachmurzenie
Visibility: 10 km
Cloud details: Few Clouds 427 m
Częściowe zachmurzenie 975 m
2021/07/27 17:20 ENSO 271720Z 33005KT 9999 FEW014 SCT032 18/17 Q1007
EKAH - Tirstrup (civ/Mi, Denmark
Distance from station: PdWs 252km
Aktualizacja: 28/07/2021 01:50
Bezchmurnie
Bezchmurnie
 Wiatr z Pd
Wiatr: Pd 4 km/h
Clouds: Bezchmurnie
Visibility: 7 km
2021/07/27 23:50 EKAH 272350Z AUTO 18002KT 7000 NCD 17/// Q1009
 
ESGT - Trollhattan (pvt, Sweden
Distance from station: Ws 255km
Aktualizacja: 28/07/2021 01:50
Przeważnie pochmurno
Przeważnie pochmurno
 Wiatr z Pd
Wiatr: Pd 9 km/h
Temperatura: 16°C
Punkt Rosy: 15°C
Wilgotność: 94%
Ciśnienie: 1008 hPa
Clouds: Przeważnie pochmurno
Visibility: 9 km
Cloud details: Few Clouds 579 m
Przeważnie pochmurno 3048 m
Przeważnie pochmurno 5486 m
2021/07/27 23:50 ESGT 272350Z AUTO 17005KT 9000 FEW019/// BKN100/// BKN180/// 16/15 Q1008
ESGG - Goteborg/Landvet, Sweden
Distance from station: Ws 257km
Aktualizacja: 28/07/2021 01:50
Częściowe zachmurzenie
Częściowe zachmurzenie
 Wiatr z PdPdWs
Wiatr: PdPdWs 13 km/h
Temperatura: 16°C
Punkt Rosy: 15°C
Wilgotność: 94%
Ciśnienie: 1008 hPa
Clouds: Częściowe zachmurzenie
Visibility: 10 km
Cloud details: Few Clouds 427 m
Częściowe zachmurzenie 823 m
2021/07/27 23:50 ESGG 272350Z 15007KT 9999 FEW014 SCT027 16/15 Q1008
 
EKBI - Billund Airport, Denmark
Distance from station: PdPdWs 269km
Aktualizacja: 28/07/2021 01:50
Fog, Few clouds
Fog, Few clouds
 Wiatr z WsPdWs
Wiatr: WsPdWs 2 km/h
Temperatura: 13°C
Punkt Rosy: 13°C
Wilgotność: 100%
Ciśnienie: 1009 hPa
Podsumowanie: Fog
Clouds: Few Clouds
Visibility: 1 km
Cloud details: Few Clouds 91 m
2021/07/27 23:50 EKBI 272350Z AUTO 12001KT 1300 R09/P1500U R27/1300U FG FEW003/// 13/13 Q1009
EKHN - Horns Rev B Heli, Denmark
Distance from station: Pd 274km
Aktualizacja: 09/08/2016 14:20
NOT Current
Few Clouds
Few Clouds
 Wiatr z ZdPnZd
Wiatr: ZdPnZd 50 km/h, Poryw: 72 km/h
Temperatura: 14°C
Punkt Rosy: 10°C
Wilgotność: 77%
Ciśnienie: 1018 hPa
Clouds: Few Clouds
Visibility: 10 km
Cloud details: Few Clouds 1158 m
Few Clouds 2438 m
2016/08/09 12:20 EKHN 091220Z AUTO 29027G39KT 270V340 9999NDV FEW038/// FEW080/// 14/10 Q1018
 
ESIB - Satenas (swe-Afb, Sweden
Distance from station: Ws 277km
Aktualizacja: 28/07/2021 01:50
Częściowe zachmurzenie
Częściowe zachmurzenie
 Wiatr z Pd
Wiatr: Pd 7 km/h
Temperatura: 16°C
Punkt Rosy: 16°C
Wilgotność: 100%
Ciśnienie: 1008 hPa
Clouds: Częściowe zachmurzenie
Visibility: 10 km
Cloud details: Częściowe zachmurzenie 1311 m
2021/07/27 23:50 ESIB 272350Z AUTO 17004KT 9999 SCT043/// 16/16 Q1008
EKHR - Horns Rev B Heli, Denmark
Distance from station: Pd 282km
Aktualizacja: 04/10/2016 06:20
NOT Current
Bezchmurnie
Bezchmurnie
 Wiatr z Ws
Wiatr: Ws 4 km/h
Temperatura: 11°C
Punkt Rosy: -49°C
Wilgotność: 0%
Ciśnienie: 1038 hPa
Clouds: Bezchmurnie
Visibility: 10 km
2016/10/04 04:20 EKHR 040420Z AUTO 08002KT 9999NDV NCD 11/M49 Q1038